sensor_id;sensor_type;location;lat;lon;timestamp;P1;durP1;ratioP1;P2;durP2;ratioP2
50968;SDS011;36982;51.474;7.228;2023-03-01T00:01:58;5.90;;;3.90;;
50968;SDS011;36982;51.474;7.228;2023-03-01T00:04:23;5.17;;;4.07;;
50968;SDS011;36982;51.474;7.228;2023-03-01T00:06:49;6.60;;;4.57;;
50968;SDS011;36982;51.474;7.228;2023-03-01T00:09:14;5.50;;;3.93;;
50968;SDS011;36982;51.474;7.228;2023-03-01T00:11:41;7.27;;;4.70;;
50968;SDS011;36982;51.474;7.228;2023-03-01T00:14:07;7.80;;;4.80;;
50968;SDS011;36982;51.474;7.228;2023-03-01T00:16:33;8.27;;;4.90;;
50968;SDS011;36982;51.474;7.228;2023-03-01T00:19:03;5.83;;;4.20;;
50968;SDS011;36982;51.474;7.228;2023-03-01T00:21:29;7.77;;;4.30;;
50968;SDS011;36982;51.474;7.228;2023-03-01T00:23:54;5.83;;;4.40;;
50968;SDS011;36982;51.474;7.228;2023-03-01T00:26:21;5.80;;;4.43;;
50968;SDS011;36982;51.474;7.228;2023-03-01T00:28:47;6.07;;;4.60;;
50968;SDS011;36982;51.474;7.228;2023-03-01T00:31:18;6.73;;;4.40;;
50968;SDS011;36982;51.474;7.228;2023-03-01T00:33:45;5.60;;;4.20;;
50968;SDS011;36982;51.474;7.228;2023-03-01T00:36:12;7.23;;;4.70;;
50968;SDS011;36982;51.474;7.228;2023-03-01T00:38:40;6.23;;;4.33;;
50968;SDS011;36982;51.474;7.228;2023-03-01T00:41:08;7.20;;;4.60;;
50968;SDS011;36982;51.474;7.228;2023-03-01T00:43:35;6.20;;;4.33;;
50968;SDS011;36982;51.474;7.228;2023-03-01T00:46:05;6.73;;;4.33;;
50968;SDS011;36982;51.474;7.228;2023-03-01T00:48:32;5.67;;;4.03;;
50968;SDS011;36982;51.474;7.228;2023-03-01T00:51:05;7.50;;;4.60;;
50968;SDS011;36982;51.474;7.228;2023-03-01T00:53:36;6.27;;;4.43;;
50968;SDS011;36982;51.474;7.228;2023-03-01T00:56:02;5.63;;;4.27;;
50968;SDS011;36982;51.474;7.228;2023-03-01T00:58:29;5.10;;;4.20;;
50968;SDS011;36982;51.474;7.228;2023-03-01T01:00:55;6.73;;;4.83;;
50968;SDS011;36982;51.474;7.228;2023-03-01T01:03:20;6.77;;;4.63;;
50968;SDS011;36982;51.474;7.228;2023-03-01T01:05:47;8.57;;;5.03;;
50968;SDS011;36982;51.474;7.228;2023-03-01T01:08:12;5.73;;;4.33;;
50968;SDS011;36982;51.474;7.228;2023-03-01T01:10:38;7.63;;;4.37;;
50968;SDS011;36982;51.474;7.228;2023-03-01T01:13:03;6.83;;;4.50;;
50968;SDS011;36982;51.474;7.228;2023-03-01T01:15:32;6.00;;;4.37;;
50968;SDS011;36982;51.474;7.228;2023-03-01T01:17:58;5.70;;;4.30;;
50968;SDS011;36982;51.474;7.228;2023-03-01T01:20:24;5.20;;;4.17;;
50968;SDS011;36982;51.474;7.228;2023-03-01T01:22:49;7.37;;;4.77;;
50968;SDS011;36982;51.474;7.228;2023-03-01T01:25:16;6.47;;;4.47;;
50968;SDS011;36982;51.474;7.228;2023-03-01T01:27:41;7.83;;;4.43;;
50968;SDS011;36982;51.474;7.228;2023-03-01T01:30:07;8.50;;;4.20;;
50968;SDS011;36982;51.474;7.228;2023-03-01T01:32:33;6.43;;;4.50;;
50968;SDS011;36982;51.474;7.228;2023-03-01T01:34:59;6.47;;;4.63;;
50968;SDS011;36982;51.474;7.228;2023-03-01T01:37:24;6.30;;;4.13;;
50968;SDS011;36982;51.474;7.228;2023-03-01T01:39:56;6.07;;;4.20;;
50968;SDS011;36982;51.474;7.228;2023-03-01T01:42:26;5.67;;;4.07;;
50968;SDS011;36982;51.474;7.228;2023-03-01T01:48:13;7.13;;;4.40;;
50968;SDS011;36982;51.474;7.228;2023-03-01T01:50:43;8.10;;;4.87;;
50968;SDS011;36982;51.474;7.228;2023-03-01T01:53:11;6.13;;;4.70;;
50968;SDS011;36982;51.474;7.228;2023-03-01T01:55:42;6.70;;;4.83;;
50968;SDS011;36982;51.474;7.228;2023-03-01T01:58:11;6.00;;;4.37;;
50968;SDS011;36982;51.474;7.228;2023-03-01T02:00:40;7.40;;;4.70;;
50968;SDS011;36982;51.474;7.228;2023-03-01T02:03:10;6.57;;;4.30;;
50968;SDS011;36982;51.474;7.228;2023-03-01T02:05:43;6.10;;;4.67;;
50968;SDS011;36982;51.474;7.228;2023-03-01T02:08:11;7.50;;;5.03;;
50968;SDS011;36982;51.474;7.228;2023-03-01T02:10:38;7.00;;;4.70;;
50968;SDS011;36982;51.474;7.228;2023-03-01T02:13:05;8.90;;;4.73;;
50968;SDS011;36982;51.474;7.228;2023-03-01T02:15:35;11.57;;;5.00;;
50968;SDS011;36982;51.474;7.228;2023-03-01T02:18:02;6.87;;;4.60;;
50968;SDS011;36982;51.474;7.228;2023-03-01T02:23:00;6.53;;;4.40;;
50968;SDS011;36982;51.474;7.228;2023-03-01T02:25:27;6.57;;;4.43;;
50968;SDS011;36982;51.474;7.228;2023-03-01T02:30:42;8.33;;;4.43;;
50968;SDS011;36982;51.474;7.228;2023-03-01T02:33:29;7.53;;;4.60;;
50968;SDS011;36982;51.474;7.228;2023-03-01T02:35:57;6.73;;;4.50;;
50968;SDS011;36982;51.474;7.228;2023-03-01T02:38:25;6.57;;;4.77;;
50968;SDS011;36982;51.474;7.228;2023-03-01T02:40:51;6.20;;;4.70;;
50968;SDS011;36982;51.474;7.228;2023-03-01T02:43:18;6.93;;;4.63;;
50968;SDS011;36982;51.474;7.228;2023-03-01T02:45:50;6.47;;;4.47;;
50968;SDS011;36982;51.474;7.228;2023-03-01T02:48:18;5.80;;;4.77;;
50968;SDS011;36982;51.474;7.228;2023-03-01T02:56:20;7.63;;;4.60;;
50968;SDS011;36982;51.474;7.228;2023-03-01T02:58:46;6.20;;;4.53;;
50968;SDS011;36982;51.474;7.228;2023-03-01T03:01:16;9.27;;;4.90;;
50968;SDS011;36982;51.474;7.228;2023-03-01T03:03:42;6.83;;;4.70;;
50968;SDS011;36982;51.474;7.228;2023-03-01T03:06:08;10.53;;;5.13;;
50968;SDS011;36982;51.474;7.228;2023-03-01T03:08:34;7.47;;;5.00;;
50968;SDS011;36982;51.474;7.228;2023-03-01T03:11:00;7.17;;;4.80;;
50968;SDS011;36982;51.474;7.228;2023-03-01T03:13:25;6.90;;;4.90;;
50968;SDS011;36982;51.474;7.228;2023-03-01T03:15:53;10.03;;;5.37;;
50968;SDS011;36982;51.474;7.228;2023-03-01T03:18:20;5.83;;;4.57;;
50968;SDS011;36982;51.474;7.228;2023-03-01T03:20:47;6.67;;;5.10;;
50968;SDS011;36982;51.474;7.228;2023-03-01T03:23:17;6.43;;;4.70;;
50968;SDS011;36982;51.474;7.228;2023-03-01T03:25:44;7.40;;;4.67;;
50968;SDS011;36982;51.474;7.228;2023-03-01T03:28:12;9.27;;;4.60;;
50968;SDS011;36982;51.474;7.228;2023-03-01T03:30:39;6.67;;;4.50;;
50968;SDS011;36982;51.474;7.228;2023-03-01T03:33:05;6.40;;;4.47;;
50968;SDS011;36982;51.474;7.228;2023-03-01T03:35:32;8.93;;;4.83;;
50968;SDS011;36982;51.474;7.228;2023-03-01T03:38:10;7.37;;;4.67;;
50968;SDS011;36982;51.474;7.228;2023-03-01T03:40:41;7.13;;;5.00;;
50968;SDS011;36982;51.474;7.228;2023-03-01T03:43:10;6.77;;;4.73;;
50968;SDS011;36982;51.474;7.228;2023-03-01T03:45:37;8.90;;;5.13;;
50968;SDS011;36982;51.474;7.228;2023-03-01T03:48:04;7.10;;;5.00;;
50968;SDS011;36982;51.474;7.228;2023-03-01T03:50:31;6.93;;;4.70;;
50968;SDS011;36982;51.474;7.228;2023-03-01T03:52:57;7.83;;;4.63;;
50968;SDS011;36982;51.474;7.228;2023-03-01T03:55:26;8.37;;;4.93;;
50968;SDS011;36982;51.474;7.228;2023-03-01T03:57:56;7.13;;;4.47;;
50968;SDS011;36982;51.474;7.228;2023-03-01T04:00:23;8.37;;;4.97;;
50968;SDS011;36982;51.474;7.228;2023-03-01T04:02:49;6.00;;;4.53;;
50968;SDS011;36982;51.474;7.228;2023-03-01T04:05:16;8.00;;;4.50;;
50968;SDS011;36982;51.474;7.228;2023-03-01T04:07:43;9.37;;;5.47;;
50968;SDS011;36982;51.474;7.228;2023-03-01T04:10:10;7.90;;;4.73;;
50968;SDS011;36982;51.474;7.228;2023-03-01T04:12:38;6.87;;;5.20;;
50968;SDS011;36982;51.474;7.228;2023-03-01T04:15:04;6.33;;;4.43;;
50968;SDS011;36982;51.474;7.228;2023-03-01T04:17:44;9.57;;;4.53;;
50968;SDS011;36982;51.474;7.228;2023-03-01T04:20:15;5.97;;;4.27;;
50968;SDS011;36982;51.474;7.228;2023-03-01T04:22:43;6.67;;;4.63;;
50968;SDS011;36982;51.474;7.228;2023-03-01T04:25:11;6.80;;;4.93;;
50968;SDS011;36982;51.474;7.228;2023-03-01T04:27:39;6.80;;;4.70;;
50968;SDS011;36982;51.474;7.228;2023-03-01T04:30:05;6.83;;;4.67;;
50968;SDS011;36982;51.474;7.228;2023-03-01T04:32:33;6.13;;;4.60;;
50968;SDS011;36982;51.474;7.228;2023-03-01T04:34:59;8.17;;;4.50;;
50968;SDS011;36982;51.474;7.228;2023-03-01T04:37:25;7.23;;;4.70;;
50968;SDS011;36982;51.474;7.228;2023-03-01T04:39:51;7.30;;;4.80;;
50968;SDS011;36982;51.474;7.228;2023-03-01T04:42:17;6.47;;;4.50;;
50968;SDS011;36982;51.474;7.228;2023-03-01T04:44:43;6.20;;;4.87;;
50968;SDS011;36982;51.474;7.228;2023-03-01T04:47:09;6.83;;;4.90;;
50968;SDS011;36982;51.474;7.228;2023-03-01T04:49:35;8.07;;;4.80;;
50968;SDS011;36982;51.474;7.228;2023-03-01T04:52:01;10.23;;;5.03;;
50968;SDS011;36982;51.474;7.228;2023-03-01T04:54:27;7.53;;;4.67;;
50968;SDS011;36982;51.474;7.228;2023-03-01T04:56:54;7.80;;;5.10;;
50968;SDS011;36982;51.474;7.228;2023-03-01T04:59:19;8.50;;;5.03;;
50968;SDS011;36982;51.474;7.228;2023-03-01T05:01:49;10.40;;;5.20;;
50968;SDS011;36982;51.474;7.228;2023-03-01T05:04:15;7.17;;;4.83;;
50968;SDS011;36982;51.474;7.228;2023-03-01T05:06:41;10.67;;;5.60;;
50968;SDS011;36982;51.474;7.228;2023-03-01T05:09:06;7.30;;;5.20;;
50968;SDS011;36982;51.474;7.228;2023-03-01T05:11:32;6.30;;;4.67;;
50968;SDS011;36982;51.474;7.228;2023-03-01T05:14:01;10.53;;;5.13;;
50968;SDS011;36982;51.474;7.228;2023-03-01T05:16:27;6.87;;;4.70;;
50968;SDS011;36982;51.474;7.228;2023-03-01T05:18:53;7.37;;;5.80;;
50968;SDS011;36982;51.474;7.228;2023-03-01T05:21:20;7.43;;;5.27;;
50968;SDS011;36982;51.474;7.228;2023-03-01T05:23:46;7.67;;;5.30;;
50968;SDS011;36982;51.474;7.228;2023-03-01T05:26:12;7.47;;;5.43;;
50968;SDS011;36982;51.474;7.228;2023-03-01T05:28:38;7.83;;;5.30;;
50968;SDS011;36982;51.474;7.228;2023-03-01T05:31:04;9.50;;;5.33;;
50968;SDS011;36982;51.474;7.228;2023-03-01T05:33:34;7.10;;;5.47;;
50968;SDS011;36982;51.474;7.228;2023-03-01T05:36:01;7.80;;;5.23;;
50968;SDS011;36982;51.474;7.228;2023-03-01T05:38:26;7.83;;;5.30;;
50968;SDS011;36982;51.474;7.228;2023-03-01T05:40:52;7.70;;;5.27;;
50968;SDS011;36982;51.474;7.228;2023-03-01T05:43:17;9.23;;;5.30;;
50968;SDS011;36982;51.474;7.228;2023-03-01T05:45:43;6.57;;;5.13;;
50968;SDS011;36982;51.474;7.228;2023-03-01T05:48:09;7.73;;;4.90;;
50968;SDS011;36982;51.474;7.228;2023-03-01T05:50:36;7.43;;;5.20;;
50968;SDS011;36982;51.474;7.228;2023-03-01T05:53:16;10.97;;;5.37;;
50968;SDS011;36982;51.474;7.228;2023-03-01T05:55:46;8.17;;;5.27;;
50968;SDS011;36982;51.474;7.228;2023-03-01T05:58:19;10.80;;;5.97;;
50968;SDS011;36982;51.474;7.228;2023-03-01T06:00:45;8.53;;;5.87;;
50968;SDS011;36982;51.474;7.228;2023-03-01T06:03:13;6.83;;;5.23;;
50968;SDS011;36982;51.474;7.228;2023-03-01T06:05:39;8.10;;;5.90;;
50968;SDS011;36982;51.474;7.228;2023-03-01T06:08:06;7.97;;;5.23;;
50968;SDS011;36982;51.474;7.228;2023-03-01T06:10:32;7.80;;;5.40;;
50968;SDS011;36982;51.474;7.228;2023-03-01T06:12:57;8.07;;;6.03;;
50968;SDS011;36982;51.474;7.228;2023-03-01T06:15:24;7.90;;;5.53;;
50968;SDS011;36982;51.474;7.228;2023-03-01T06:17:50;8.40;;;5.67;;
50968;SDS011;36982;51.474;7.228;2023-03-01T06:20:17;8.90;;;5.57;;
50968;SDS011;36982;51.474;7.228;2023-03-01T06:22:45;8.77;;;5.53;;
50968;SDS011;36982;51.474;7.228;2023-03-01T06:25:12;7.63;;;5.60;;
50968;SDS011;36982;51.474;7.228;2023-03-01T06:27:40;8.20;;;5.40;;
50968;SDS011;36982;51.474;7.228;2023-03-01T06:30:07;8.43;;;5.53;;
50968;SDS011;36982;51.474;7.228;2023-03-01T06:32:35;6.97;;;5.00;;
50968;SDS011;36982;51.474;7.228;2023-03-01T06:35:01;8.30;;;5.53;;
50968;SDS011;36982;51.474;7.228;2023-03-01T06:37:27;9.20;;;5.83;;
50968;SDS011;36982;51.474;7.228;2023-03-01T06:39:53;8.67;;;5.60;;
50968;SDS011;36982;51.474;7.228;2023-03-01T06:42:18;10.13;;;5.67;;
50968;SDS011;36982;51.474;7.228;2023-03-01T06:44:44;8.57;;;5.53;;
50968;SDS011;36982;51.474;7.228;2023-03-01T06:47:10;10.40;;;6.13;;
50968;SDS011;36982;51.474;7.228;2023-03-01T06:49:36;14.83;;;6.70;;
50968;SDS011;36982;51.474;7.228;2023-03-01T06:52:02;9.30;;;5.73;;
50968;SDS011;36982;51.474;7.228;2023-03-01T06:54:27;9.20;;;6.20;;
50968;SDS011;36982;51.474;7.228;2023-03-01T06:56:53;9.60;;;6.13;;
50968;SDS011;36982;51.474;7.228;2023-03-01T06:59:18;10.13;;;6.40;;
50968;SDS011;36982;51.474;7.228;2023-03-01T07:01:44;9.43;;;6.57;;
50968;SDS011;36982;51.474;7.228;2023-03-01T07:04:10;10.87;;;6.43;;
50968;SDS011;36982;51.474;7.228;2023-03-01T07:06:37;9.17;;;5.97;;
50968;SDS011;36982;51.474;7.228;2023-03-01T07:09:02;10.30;;;6.43;;
50968;SDS011;36982;51.474;7.228;2023-03-01T07:11:28;10.63;;;6.33;;
50968;SDS011;36982;51.474;7.228;2023-03-01T07:13:54;10.67;;;6.13;;
50968;SDS011;36982;51.474;7.228;2023-03-01T07:16:20;9.53;;;6.37;;
50968;SDS011;36982;51.474;7.228;2023-03-01T07:18:45;7.67;;;5.77;;
50968;SDS011;36982;51.474;7.228;2023-03-01T07:21:12;8.23;;;5.90;;
50968;SDS011;36982;51.474;7.228;2023-03-01T07:23:38;10.23;;;6.63;;
50968;SDS011;36982;51.474;7.228;2023-03-01T07:26:04;9.50;;;6.03;;
50968;SDS011;36982;51.474;7.228;2023-03-01T07:28:30;9.03;;;6.13;;
50968;SDS011;36982;51.474;7.228;2023-03-01T07:31:01;9.97;;;6.63;;
50968;SDS011;36982;51.474;7.228;2023-03-01T07:33:27;9.97;;;6.20;;
50968;SDS011;36982;51.474;7.228;2023-03-01T07:36:00;9.27;;;5.40;;
50968;SDS011;36982;51.474;7.228;2023-03-01T07:38:27;13.73;;;6.20;;
50968;SDS011;36982;51.474;7.228;2023-03-01T07:40:54;12.27;;;6.30;;
50968;SDS011;36982;51.474;7.228;2023-03-01T07:43:27;9.73;;;6.20;;
50968;SDS011;36982;51.474;7.228;2023-03-01T07:45:53;10.27;;;6.37;;
50968;SDS011;36982;51.474;7.228;2023-03-01T07:48:19;12.33;;;6.63;;
50968;SDS011;36982;51.474;7.228;2023-03-01T07:50:44;9.07;;;6.30;;
50968;SDS011;36982;51.474;7.228;2023-03-01T07:53:10;7.80;;;5.83;;
50968;SDS011;36982;51.474;7.228;2023-03-01T07:55:36;8.87;;;6.10;;
50968;SDS011;36982;51.474;7.228;2023-03-01T07:58:02;10.23;;;7.10;;
50968;SDS011;36982;51.474;7.228;2023-03-01T08:00:28;10.03;;;6.57;;
50968;SDS011;36982;51.474;7.228;2023-03-01T08:02:53;8.97;;;5.87;;
50968;SDS011;36982;51.474;7.228;2023-03-01T08:05:19;11.80;;;6.70;;
50968;SDS011;36982;51.474;7.228;2023-03-01T08:07:47;12.27;;;6.13;;
50968;SDS011;36982;51.474;7.228;2023-03-01T08:10:13;11.80;;;6.00;;
50968;SDS011;36982;51.474;7.228;2023-03-01T08:12:39;13.17;;;6.37;;
50968;SDS011;36982;51.474;7.228;2023-03-01T08:15:04;8.90;;;6.33;;
50968;SDS011;36982;51.474;7.228;2023-03-01T08:17:30;9.67;;;6.30;;
50968;SDS011;36982;51.474;7.228;2023-03-01T08:19:56;13.40;;;6.53;;
50968;SDS011;36982;51.474;7.228;2023-03-01T08:22:21;10.23;;;6.57;;
50968;SDS011;36982;51.474;7.228;2023-03-01T08:24:47;9.07;;;6.10;;
50968;SDS011;36982;51.474;7.228;2023-03-01T08:27:14;8.93;;;5.90;;
50968;SDS011;36982;51.474;7.228;2023-03-01T08:29:41;6.93;;;5.33;;
50968;SDS011;36982;51.474;7.228;2023-03-01T08:32:06;11.13;;;5.83;;
50968;SDS011;36982;51.474;7.228;2023-03-01T08:34:32;11.07;;;5.13;;
50968;SDS011;36982;51.474;7.228;2023-03-01T08:37:00;7.73;;;5.70;;
50968;SDS011;36982;51.474;7.228;2023-03-01T08:39:26;9.67;;;5.37;;
50968;SDS011;36982;51.474;7.228;2023-03-01T08:41:52;13.30;;;5.73;;
50968;SDS011;36982;51.474;7.228;2023-03-01T08:44:17;8.00;;;5.43;;
50968;SDS011;36982;51.474;7.228;2023-03-01T08:46:43;4.57;;;3.13;;
50968;SDS011;36982;51.474;7.228;2023-03-01T08:49:14;7.00;;;5.60;;
50968;SDS011;36982;51.474;7.228;2023-03-01T08:51:42;8.30;;;5.40;;
50968;SDS011;36982;51.474;7.228;2023-03-01T08:54:16;9.00;;;4.63;;
50968;SDS011;36982;51.474;7.228;2023-03-01T08:56:43;8.33;;;5.30;;
50968;SDS011;36982;51.474;7.228;2023-03-01T08:59:13;6.97;;;5.47;;
50968;SDS011;36982;51.474;7.228;2023-03-01T09:01:39;9.30;;;6.27;;
50968;SDS011;36982;51.474;7.228;2023-03-01T09:04:08;8.83;;;5.40;;
50968;SDS011;36982;51.474;7.228;2023-03-01T09:06:33;8.63;;;5.83;;
50968;SDS011;36982;51.474;7.228;2023-03-01T09:08:59;6.27;;;4.07;;
50968;SDS011;36982;51.474;7.228;2023-03-01T09:11:26;4.73;;;3.13;;
50968;SDS011;36982;51.474;7.228;2023-03-01T09:13:52;6.97;;;4.87;;
50968;SDS011;36982;51.474;7.228;2023-03-01T09:16:19;8.33;;;5.47;;
50968;SDS011;36982;51.474;7.228;2023-03-01T09:18:45;7.30;;;3.93;;
50968;SDS011;36982;51.474;7.228;2023-03-01T09:21:15;7.93;;;5.27;;
50968;SDS011;36982;51.474;7.228;2023-03-01T09:23:43;7.83;;;4.50;;
50968;SDS011;36982;51.474;7.228;2023-03-01T09:26:11;8.77;;;4.77;;
50968;SDS011;36982;51.474;7.228;2023-03-01T09:28:39;9.57;;;5.10;;
50968;SDS011;36982;51.474;7.228;2023-03-01T09:31:09;8.03;;;4.80;;
50968;SDS011;36982;51.474;7.228;2023-03-01T09:33:37;7.83;;;4.77;;
50968;SDS011;36982;51.474;7.228;2023-03-01T09:36:05;7.40;;;4.97;;
50968;SDS011;36982;51.474;7.228;2023-03-01T09:38:33;7.73;;;4.73;;
50968;SDS011;36982;51.474;7.228;2023-03-01T09:41:00;6.93;;;3.93;;
50968;SDS011;36982;51.474;7.228;2023-03-01T09:43:31;7.57;;;4.03;;
50968;SDS011;36982;51.474;7.228;2023-03-01T09:45:59;6.77;;;4.27;;
50968;SDS011;36982;51.474;7.228;2023-03-01T09:48:37;5.97;;;4.10;;
50968;SDS011;36982;51.474;7.228;2023-03-01T09:51:16;8.13;;;4.50;;
50968;SDS011;36982;51.474;7.228;2023-03-01T09:53:44;8.33;;;4.67;;
50968;SDS011;36982;51.474;7.228;2023-03-01T09:56:16;5.40;;;3.90;;
50968;SDS011;36982;51.474;7.228;2023-03-01T10:01:56;5.77;;;4.10;;
50968;SDS011;36982;51.474;7.228;2023-03-01T10:09:59;7.27;;;4.00;;
50968;SDS011;36982;51.474;7.228;2023-03-01T10:12:35;6.40;;;3.43;;
50968;SDS011;36982;51.474;7.228;2023-03-01T10:15:07;5.23;;;3.47;;
50968;SDS011;36982;51.474;7.228;2023-03-01T10:17:41;5.97;;;3.73;;
50968;SDS011;36982;51.474;7.228;2023-03-01T10:23:10;6.67;;;4.07;;
50968;SDS011;36982;51.474;7.228;2023-03-01T10:25:42;6.97;;;3.47;;
50968;SDS011;36982;51.474;7.228;2023-03-01T10:28:17;6.83;;;3.50;;
50968;SDS011;36982;51.474;7.228;2023-03-01T10:31:00;5.53;;;3.60;;
50968;SDS011;36982;51.474;7.228;2023-03-01T10:33:27;4.70;;;3.33;;
50968;SDS011;36982;51.474;7.228;2023-03-01T10:35:57;5.80;;;3.70;;
50968;SDS011;36982;51.474;7.228;2023-03-01T10:38:22;6.50;;;3.73;;
50968;SDS011;36982;51.474;7.228;2023-03-01T10:43:16;5.80;;;2.53;;
50968;SDS011;36982;51.474;7.228;2023-03-01T10:45:42;8.80;;;4.10;;
50968;SDS011;36982;51.474;7.228;2023-03-01T10:50:43;4.97;;;3.60;;
50968;SDS011;36982;51.474;7.228;2023-03-01T10:56:04;6.87;;;3.80;;
50968;SDS011;36982;51.474;7.228;2023-03-01T10:58:38;5.87;;;3.80;;
50968;SDS011;36982;51.474;7.228;2023-03-01T11:06:30;6.00;;;3.57;;
50968;SDS011;36982;51.474;7.228;2023-03-01T11:08:56;8.47;;;4.40;;
50968;SDS011;36982;51.474;7.228;2023-03-01T11:11:40;5.57;;;3.43;;
50968;SDS011;36982;51.474;7.228;2023-03-01T11:14:06;6.60;;;4.20;;
50968;SDS011;36982;51.474;7.228;2023-03-01T11:16:46;6.03;;;3.60;;
50968;SDS011;36982;51.474;7.228;2023-03-01T11:24:21;3.50;;;2.40;;
50968;SDS011;36982;51.474;7.228;2023-03-01T11:27:12;5.80;;;3.97;;
50968;SDS011;36982;51.474;7.228;2023-03-01T11:29:44;5.23;;;2.83;;
50968;SDS011;36982;51.474;7.228;2023-03-01T11:32:16;6.80;;;3.90;;
50968;SDS011;36982;51.474;7.228;2023-03-01T11:37:20;5.57;;;4.07;;
50968;SDS011;36982;51.474;7.228;2023-03-01T11:45:22;6.77;;;4.07;;
50968;SDS011;36982;51.474;7.228;2023-03-01T11:50:56;5.43;;;4.17;;
50968;SDS011;36982;51.474;7.228;2023-03-01T11:56:16;6.70;;;4.27;;
50968;SDS011;36982;51.474;7.228;2023-03-01T11:58:54;5.27;;;3.97;;
50968;SDS011;36982;51.474;7.228;2023-03-01T12:01:50;7.50;;;4.30;;
50968;SDS011;36982;51.474;7.228;2023-03-01T12:07:45;6.83;;;3.97;;
50968;SDS011;36982;51.474;7.228;2023-03-01T12:15:32;6.63;;;4.43;;
50968;SDS011;36982;51.474;7.228;2023-03-01T12:26:43;7.40;;;4.67;;
50968;SDS011;36982;51.474;7.228;2023-03-01T12:29:30;6.70;;;4.70;;
50968;SDS011;36982;51.474;7.228;2023-03-01T12:34:52;9.03;;;4.77;;
50968;SDS011;36982;51.474;7.228;2023-03-01T12:43:06;7.33;;;4.53;;
50968;SDS011;36982;51.474;7.228;2023-03-01T12:50:47;5.77;;;3.90;;
50968;SDS011;36982;51.474;7.228;2023-03-01T12:53:26;9.50;;;4.23;;
50968;SDS011;36982;51.474;7.228;2023-03-01T12:56:01;6.73;;;4.37;;
50968;SDS011;36982;51.474;7.228;2023-03-01T12:59:14;6.03;;;3.40;;
50968;SDS011;36982;51.474;7.228;2023-03-01T13:17:56;5.30;;;3.80;;
50968;SDS011;36982;51.474;7.228;2023-03-01T13:20:26;5.90;;;4.00;;
50968;SDS011;36982;51.474;7.228;2023-03-01T13:25:33;6.07;;;3.40;;
50968;SDS011;36982;51.474;7.228;2023-03-01T13:29:00;6.67;;;3.83;;
50968;SDS011;36982;51.474;7.228;2023-03-01T13:31:01;7.97;;;4.23;;
50968;SDS011;36982;51.474;7.228;2023-03-01T13:35:53;7.33;;;4.30;;
50968;SDS011;36982;51.474;7.228;2023-03-01T13:41:13;6.87;;;3.60;;
50968;SDS011;36982;51.474;7.228;2023-03-01T13:43:40;7.73;;;3.93;;
50968;SDS011;36982;51.474;7.228;2023-03-01T13:46:18;6.33;;;3.90;;
50968;SDS011;36982;51.474;7.228;2023-03-01T13:48:47;6.70;;;3.60;;
50968;SDS011;36982;51.474;7.228;2023-03-01T13:51:16;6.47;;;4.20;;
50968;SDS011;36982;51.474;7.228;2023-03-01T13:53:50;6.20;;;3.63;;
50968;SDS011;36982;51.474;7.228;2023-03-01T13:56:19;5.97;;;4.23;;
50968;SDS011;36982;51.474;7.228;2023-03-01T14:01:26;5.37;;;3.80;;
50968;SDS011;36982;51.474;7.228;2023-03-01T14:04:00;5.70;;;4.07;;
50968;SDS011;36982;51.474;7.228;2023-03-01T14:06:30;8.13;;;4.73;;
50968;SDS011;36982;51.474;7.228;2023-03-01T14:09:17;6.80;;;4.60;;
50968;SDS011;36982;51.474;7.228;2023-03-01T14:11:52;6.60;;;4.27;;
50968;SDS011;36982;51.474;7.228;2023-03-01T14:14:28;7.43;;;4.73;;
50968;SDS011;36982;51.474;7.228;2023-03-01T14:19:48;5.00;;;3.33;;
50968;SDS011;36982;51.474;7.228;2023-03-01T14:24:56;6.70;;;4.33;;
50968;SDS011;36982;51.474;7.228;2023-03-01T14:27:29;9.10;;;4.73;;
50968;SDS011;36982;51.474;7.228;2023-03-01T14:30:09;5.90;;;4.30;;
50968;SDS011;36982;51.474;7.228;2023-03-01T14:32:39;5.10;;;3.27;;
50968;SDS011;36982;51.474;7.228;2023-03-01T14:35:19;6.77;;;4.10;;
50968;SDS011;36982;51.474;7.228;2023-03-01T14:37:51;7.77;;;4.80;;
50968;SDS011;36982;51.474;7.228;2023-03-01T14:40:21;6.73;;;4.07;;
50968;SDS011;36982;51.474;7.228;2023-03-01T14:42:49;5.93;;;4.13;;
50968;SDS011;36982;51.474;7.228;2023-03-01T14:45:16;8.17;;;4.73;;
50968;SDS011;36982;51.474;7.228;2023-03-01T14:47:43;6.30;;;4.40;;
50968;SDS011;36982;51.474;7.228;2023-03-01T14:50:15;9.60;;;4.37;;
50968;SDS011;36982;51.474;7.228;2023-03-01T14:52:45;5.20;;;3.63;;
50968;SDS011;36982;51.474;7.228;2023-03-01T14:55:15;7.10;;;4.67;;
50968;SDS011;36982;51.474;7.228;2023-03-01T14:57:48;7.00;;;4.33;;
50968;SDS011;36982;51.474;7.228;2023-03-01T15:00:18;5.93;;;3.77;;
50968;SDS011;36982;51.474;7.228;2023-03-01T15:02:50;6.67;;;4.13;;
50968;SDS011;36982;51.474;7.228;2023-03-01T15:05:18;7.13;;;4.27;;
50968;SDS011;36982;51.474;7.228;2023-03-01T15:07:50;9.80;;;4.00;;
50968;SDS011;36982;51.474;7.228;2023-03-01T15:10:19;7.27;;;4.20;;
50968;SDS011;36982;51.474;7.228;2023-03-01T15:12:56;5.93;;;3.70;;
50968;SDS011;36982;51.474;7.228;2023-03-01T15:15:39;5.60;;;3.10;;
50968;SDS011;36982;51.474;7.228;2023-03-01T15:20:51;7.23;;;4.13;;
50968;SDS011;36982;51.474;7.228;2023-03-01T15:23:19;5.60;;;3.60;;
50968;SDS011;36982;51.474;7.228;2023-03-01T15:25:46;7.03;;;3.53;;
50968;SDS011;36982;51.474;7.228;2023-03-01T15:28:12;9.00;;;3.07;;
50968;SDS011;36982;51.474;7.228;2023-03-01T15:30:45;5.20;;;3.73;;
50968;SDS011;36982;51.474;7.228;2023-03-01T15:33:27;6.73;;;3.30;;
50968;SDS011;36982;51.474;7.228;2023-03-01T15:35:59;6.57;;;3.77;;
50968;SDS011;36982;51.474;7.228;2023-03-01T15:38:35;5.23;;;3.67;;
50968;SDS011;36982;51.474;7.228;2023-03-01T15:43:57;8.10;;;3.60;;
50968;SDS011;36982;51.474;7.228;2023-03-01T15:46:39;4.50;;;3.10;;
50968;SDS011;36982;51.474;7.228;2023-03-01T15:49:05;5.77;;;3.50;;
50968;SDS011;36982;51.474;7.228;2023-03-01T15:52:02;5.57;;;3.60;;
50968;SDS011;36982;51.474;7.228;2023-03-01T15:54:29;9.93;;;4.20;;
50968;SDS011;36982;51.474;7.228;2023-03-01T15:56:54;6.60;;;3.80;;
50968;SDS011;36982;51.474;7.228;2023-03-01T15:59:20;4.83;;;3.70;;
50968;SDS011;36982;51.474;7.228;2023-03-01T16:01:47;7.00;;;3.60;;
50968;SDS011;36982;51.474;7.228;2023-03-01T16:04:13;5.70;;;3.97;;
50968;SDS011;36982;51.474;7.228;2023-03-01T16:06:54;9.90;;;3.70;;
50968;SDS011;36982;51.474;7.228;2023-03-01T16:09:21;5.97;;;3.70;;
50968;SDS011;36982;51.474;7.228;2023-03-01T16:11:50;5.03;;;3.50;;
50968;SDS011;36982;51.474;7.228;2023-03-01T16:14:17;5.73;;;3.10;;
50968;SDS011;36982;51.474;7.228;2023-03-01T16:16:43;5.60;;;3.00;;
50968;SDS011;36982;51.474;7.228;2023-03-01T16:19:09;3.80;;;2.90;;
50968;SDS011;36982;51.474;7.228;2023-03-01T16:21:35;5.07;;;3.27;;
50968;SDS011;36982;51.474;7.228;2023-03-01T16:24:01;8.07;;;3.03;;
50968;SDS011;36982;51.474;7.228;2023-03-01T16:26:26;5.27;;;3.37;;
50968;SDS011;36982;51.474;7.228;2023-03-01T16:28:54;5.53;;;3.47;;
50968;SDS011;36982;51.474;7.228;2023-03-01T16:31:21;6.33;;;3.47;;
50968;SDS011;36982;51.474;7.228;2023-03-01T16:33:47;5.43;;;3.17;;
50968;SDS011;36982;51.474;7.228;2023-03-01T16:36:15;4.77;;;3.50;;
50968;SDS011;36982;51.474;7.228;2023-03-01T16:38:42;5.37;;;3.30;;
50968;SDS011;36982;51.474;7.228;2023-03-01T16:41:11;4.80;;;3.17;;
50968;SDS011;36982;51.474;7.228;2023-03-01T16:43:39;4.30;;;2.80;;
50968;SDS011;36982;51.474;7.228;2023-03-01T16:49:06;3.20;;;2.40;;
50968;SDS011;36982;51.474;7.228;2023-03-01T16:51:31;4.40;;;2.90;;
50968;SDS011;36982;51.474;7.228;2023-03-01T16:53:59;3.80;;;2.87;;
50968;SDS011;36982;51.474;7.228;2023-03-01T16:56:25;4.70;;;2.90;;
50968;SDS011;36982;51.474;7.228;2023-03-01T16:58:50;6.07;;;3.07;;
50968;SDS011;36982;51.474;7.228;2023-03-01T17:01:17;4.80;;;3.10;;
50968;SDS011;36982;51.474;7.228;2023-03-01T17:03:45;4.93;;;3.10;;
50968;SDS011;36982;51.474;7.228;2023-03-01T17:06:12;6.07;;;3.23;;